Colombo Express — DIHC — position and weather

sailwx.info

Track history (hours):
 
Tides and Currents Weather Stations Pressure Air Temp Water Temp Dewpoint Dewpoint Depression Visibility Wind Speed Wind Dir Waves Ship Positions

Colombo Express

Last reported at 2014-Jul-20 18:00 UTC. Time now 2014-Jul-22 18:58 UTC.
Position N 29°06' E 032°42'.

Length 335.5 m; beam 42.8 m; draft 14.6 m.

Type: Ship. MMSI: 211433000.

Wind from 290 at 7 knots

Waves 0.5 meters (2 feet), 6 second period

Barometer 1008.0 mb
Air temperature 28.0 ° C
Visibility: greater than 10.8 NM
Dewpoint 15.8 ° C
Water temperature 25.0 ° C

Date/timePositionNaut miles runAvg speedWind from/ knotsBaromVisibWave heightAir tempDewpointWater temp
2014-Jul-20 18:00N 29°06' E 032°42'   290 / 71008.010.8 0.528.015.825.0
2014-Jul-18 06:00N 32°30' E 028°54'9415.7 280 / 81012.010.8 0.526.020.224.0
2014-Jul-18 00:00N 32°54' E 027°06'31617.6 300 / 71012.8 5.4 24.020.824.0
2014-Jul-17 06:00N 34°36' E 021°06'9816.4 340 / 81015.210.8 0.526.017.025.0
2014-Jul-17 00:00N 35°06' E 019°12'10717.8 330 / 151015.8 5.4 24.520.625.0
2014-Jul-16 18:00N 35°36' E 017°06'5615.8 310 / 31016.210.8 0.525.518.926.0
2014-Jul-16 14:28N 35°58' E 016°03'1617.2
2014-Jul-16 13:33N 36°03' E 015°44'1717.3
2014-Jul-16 12:33N 36°08' E 015°24'1017.3
2014-Jul-16 12:00N 36°06' E 015°12'921.5 260 / 81016.710.8 0.527.020.622.0
2014-Jul-16 11:33N 36°12' E 015°03'1717.4
2014-Jul-16 10:33N 36°18' E 014°43'1817.5
2014-Jul-16 09:33N 36°24' E 014°23'1817.7
2014-Jul-16 08:33N 36°29' E 014°02'1717.3
2014-Jul-16 07:33N 36°35' E 013°41'1717.4
2014-Jul-16 06:33N 36°40' E 013°20'1729.2
2014-Jul-16 06:00N 36°42' E 013°00'9816.3 340 / 141016.810.8 0.525.222.122.0
2014-Jul-16 00:00N 37°18' E 011°06'21117.6 290 / 111018.610.8 22.519.622.0
2014-Jul-15 12:00N 38°12' E 006°48'12717.0 300 / 61020.410.8 0.525.018.323.0
2014-Jul-15 04:32N 38°43' E 004°11'1717.0
2014-Jul-15 03:33N 38°47' E 003°50'1716.9
2014-Jul-15 02:33N 38°51' E 003°29'1717.0
2014-Jul-15 01:33N 38°56' E 003°08'1717.2
2014-Jul-15 00:33N 38°59' E 002°47'1322.9
2014-Jul-15 00:00N 39°00' E 002°30'511.7 130 / 101018.7 5.4 24.019.624.0
2014-Jul-14 23:33N 39°04' E 002°25'1717.0
2014-Jul-14 22:33N 39°08' E 002°04'1717.4
2014-Jul-14 21:33N 39°12' E 001°42'1717.4
2014-Jul-14 20:33N 39°15' E 001°20'1817.6
2014-Jul-14 19:33N 39°17' E 000°57'2417.5
2014-Jul-14 18:11N 39°20' E 000°27'2817.5
2014-Jul-14 16:33N 39°24' W 000°10'8 7.3
2014-Jul-14 15:31N 39°27' W 000°19'0 0.0
2014-Jul-14 14:31N 39°27' W 000°19'0 0.0
2014-Jul-14 13:31N 39°27' W 000°19'0 0.0
2014-Jul-14 12:31N 39°27' W 000°19'0 0.0
2014-Jul-14 11:31N 39°27' W 000°19'0 0.0
2014-Jul-14 10:31N 39°27' W 000°19'0 0.0
2014-Jul-14 09:31N 39°27' W 000°19'0 0.0
2014-Jul-14 08:31N 39°27' W 000°19'0 0.0
2014-Jul-14 07:31N 39°27' W 000°19'0 0.0
2014-Jul-14 06:28N 39°27' W 000°19'0 0.0
2014-Jul-14 05:31N 39°27' W 000°19'0 0.0
2014-Jul-14 04:31N 39°27' W 000°19'0 0.0
2014-Jul-14 03:31N 39°27' W 000°19'0 0.0
2014-Jul-14 02:28N 39°27' W 000°19'0 0.0
2014-Jul-14 01:31N 39°27' W 000°19'0 0.0
2014-Jul-14 00:31N 39°27' W 000°19'0 0.0
2014-Jul-13 23:28N 39°27' W 000°19'0 0.0
2014-Jul-13 22:28N 39°27' W 000°19'0 0.0
2014-Jul-13 21:31N 39°27' W 000°19'0 0.0
2014-Jul-13 20:31N 39°27' W 000°19'0 0.0
2014-Jul-13 19:31N 39°27' W 000°19'0 0.0
2014-Jul-13 18:31N 39°27' W 000°19'0 0.0
2014-Jul-13 17:31N 39°27' W 000°19'0 0.0
2014-Jul-13 16:33N 39°27' W 000°19'4 4.4
2014-Jul-13 15:33N 39°28' W 000°13'1816.9
2014-Jul-13 14:30N 39°40' E 000°04'1617.2
2014-Jul-13 13:33N 39°50' E 000°20'1717.2
2014-Jul-13 12:33N 40°02' E 000°36'1917.4
2014-Jul-13 11:29N 40°15' E 000°54'1717.9
2014-Jul-13 10:33N 40°26' E 001°11'2118.1
2014-Jul-13 09:23N 40°40' E 001°31'1518.4
2014-Jul-13 08:33N 40°52' E 001°44'2017.9
2014-Jul-13 07:24N 41°08' E 002°01'1315.8
2014-Jul-13 06:34N 41°19' E 002°10'1 0.1
2014-Jul-12 11:20N 41°18' E 002°11'2 2.7
2014-Jul-12 10:28N 41°17' E 002°13'1111.5
2014-Jul-12 09:33N 41°23' E 002°25'2018.3
2014-Jul-12 08:29N 41°33' E 002°48'1616.8
2014-Jul-12 07:33N 41°41' E 003°05'2018.0
2014-Jul-12 06:28N 41°53' E 003°26'1918.5
2014-Jul-12 05:28N 42°07' E 003°42'1818.6
2014-Jul-12 04:30N 42°21' E 003°58'2419.9
2014-Jul-12 03:18N 42°38' E 004°20'1619.5
2014-Jul-12 02:30N 42°50' E 004°34'2019.7
2014-Jul-12 01:30N 43°05' E 004°52'1717.6
2014-Jul-12 00:33N 43°21' E 004°58'7 6.5
2014-Jul-11 23:32N 43°25' E 004°51'0 0.0
2014-Jul-11 22:32N 43°25' E 004°51'0 0.0
2014-Jul-11 21:32N 43°25' E 004°51'0 0.0
2014-Jul-11 20:32N 43°25' E 004°51'0 0.0
2014-Jul-11 19:32N 43°25' E 004°51'0 0.0
2014-Jul-11 18:32N 43°25' E 004°51'0 0.0
2014-Jul-11 17:32N 43°25' E 004°51'0 0.0
2014-Jul-11 16:32N 43°25' E 004°51'0 0.0
2014-Jul-11 15:32N 43°25' E 004°51'0 0.0
2014-Jul-11 14:32N 43°25' E 004°51'0 0.0
2014-Jul-11 13:32N 43°25' E 004°51'0 0.0
2014-Jul-11 12:32N 43°25' E 004°51'0 0.0
2014-Jul-11 11:32N 43°25' E 004°51'0 0.0
2014-Jul-11 10:32N 43°25' E 004°51'0 0.0
2014-Jul-11 09:32N 43°25' E 004°51'0 0.0
2014-Jul-11 08:32N 43°25' E 004°51'0 0.0
2014-Jul-11 07:32N 43°25' E 004°51'0 0.0
2014-Jul-11 06:32N 43°25' E 004°51'0 0.0
2014-Jul-11 05:32N 43°25' E 004°51'0 0.0
2014-Jul-11 04:32N 43°25' E 004°51'0 0.0
2014-Jul-11 03:32N 43°25' E 004°51'0 0.0
2014-Jul-11 02:32N 43°25' E 004°51'0 0.0
2014-Jul-11 01:32N 43°25' E 004°51'0 0.0
2014-Jul-11 00:32N 43°25' E 004°51'0 0.0
2014-Jul-10 23:32N 43°25' E 004°51'0 0.0
2014-Jul-10 22:32N 43°25' E 004°51'0 0.0
2014-Jul-10 21:32N 43°25' E 004°51'0 0.0
2014-Jul-10 20:32N 43°25' E 004°51'0 0.0
2014-Jul-10 19:29N 43°25' E 004°51'0 0.0
2014-Jul-10 18:32N 43°25' E 004°51'  
Track history (hours):
 
Tides and Currents Weather Stations Pressure Air Temp Water Temp Dewpoint Dewpoint Depression Visibility Wind Speed Wind Dir Waves Ship Positions

Colombo Express

Last reported at 2014-Jul-20 18:00 UTC. Time now 2014-Jul-22 18:58 UTC.
Position N 29°06' E 032°42'.

Length 335.5 m; beam 42.8 m; draft 14.6 m.

Type: Ship. MMSI: 211433000.

Wind from 290 at 7 knots

Waves 0.5 meters (2 feet), 6 second period

Barometer 1008.0 mb
Air temperature 28.0 ° C
Visibility: greater than 10.8 NM
Dewpoint 15.8 ° C
Water temperature 25.0 ° C

Date/timePositionNaut miles runAvg speedWind from/ knotsBaromVisibWave heightAir tempDewpointWater temp
2014-Jul-20 18:00N 29°06' E 032°42'   290 / 71008.010.8 0.528.015.825.0
2014-Jul-18 06:00N 32°30' E 028°54'9415.7 280 / 81012.010.8 0.526.020.224.0
2014-Jul-18 00:00N 32°54' E 027°06'31617.6 300 / 71012.8 5.4 24.020.824.0
2014-Jul-17 06:00N 34°36' E 021°06'9816.4 340 / 81015.210.8 0.526.017.025.0
2014-Jul-17 00:00N 35°06' E 019°12'10717.8 330 / 151015.8 5.4 24.520.625.0
2014-Jul-16 18:00N 35°36' E 017°06'5615.8 310 / 31016.210.8 0.525.518.926.0
2014-Jul-16 14:28N 35°58' E 016°03'1617.2
2014-Jul-16 13:33N 36°03' E 015°44'1717.3
2014-Jul-16 12:33N 36°08' E 015°24'1017.3
2014-Jul-16 12:00N 36°06' E 015°12'921.5 260 / 81016.710.8 0.527.020.622.0
2014-Jul-16 11:33N 36°12' E 015°03'1717.4
2014-Jul-16 10:33N 36°18' E 014°43'1817.5
2014-Jul-16 09:33N 36°24' E 014°23'1817.7
2014-Jul-16 08:33N 36°29' E 014°02'1717.3
2014-Jul-16 07:33N 36°35' E 013°41'1717.4
2014-Jul-16 06:33N 36°40' E 013°20'1729.2
2014-Jul-16 06:00N 36°42' E 013°00'9816.3 340 / 141016.810.8 0.525.222.122.0
2014-Jul-16 00:00N 37°18' E 011°06'21117.6 290 / 111018.610.8 22.519.622.0
2014-Jul-15 12:00N 38°12' E 006°48'12717.0 300 / 61020.410.8 0.525.018.323.0
2014-Jul-15 04:32N 38°43' E 004°11'1717.0
2014-Jul-15 03:33N 38°47' E 003°50'1716.9
2014-Jul-15 02:33N 38°51' E 003°29'1717.0
2014-Jul-15 01:33N 38°56' E 003°08'1717.2
2014-Jul-15 00:33N 38°59' E 002°47'1322.9
2014-Jul-15 00:00N 39°00' E 002°30'511.7 130 / 101018.7 5.4 24.019.624.0
2014-Jul-14 23:33N 39°04' E 002°25'1717.0
2014-Jul-14 22:33N 39°08' E 002°04'1717.4
2014-Jul-14 21:33N 39°12' E 001°42'1717.4
2014-Jul-14 20:33N 39°15' E 001°20'1817.6
2014-Jul-14 19:33N 39°17' E 000°57'2417.5
2014-Jul-14 18:11N 39°20' E 000°27'2817.5
2014-Jul-14 16:33N 39°24' W 000°10'8 7.3
2014-Jul-14 15:31N 39°27' W 000°19'0 0.0
2014-Jul-14 14:31N 39°27' W 000°19'0 0.0
2014-Jul-14 13:31N 39°27' W 000°19'0 0.0
2014-Jul-14 12:31N 39°27' W 000°19'0 0.0
2014-Jul-14 11:31N 39°27' W 000°19'0 0.0
2014-Jul-14 10:31N 39°27' W 000°19'0 0.0
2014-Jul-14 09:31N 39°27' W 000°19'0 0.0
2014-Jul-14 08:31N 39°27' W 000°19'0 0.0
2014-Jul-14 07:31N 39°27' W 000°19'0 0.0
2014-Jul-14 06:28N 39°27' W 000°19'0 0.0
2014-Jul-14 05:31N 39°27' W 000°19'0 0.0
2014-Jul-14 04:31N 39°27' W 000°19'0 0.0
2014-Jul-14 03:31N 39°27' W 000°19'0 0.0
2014-Jul-14 02:28N 39°27' W 000°19'0 0.0
2014-Jul-14 01:31N 39°27' W 000°19'0 0.0
2014-Jul-14 00:31N 39°27' W 000°19'0 0.0
2014-Jul-13 23:28N 39°27' W 000°19'0 0.0
2014-Jul-13 22:28N 39°27' W 000°19'0 0.0
2014-Jul-13 21:31N 39°27' W 000°19'0 0.0
2014-Jul-13 20:31N 39°27' W 000°19'0 0.0
2014-Jul-13 19:31N 39°27' W 000°19'0 0.0
2014-Jul-13 18:31N 39°27' W 000°19'0 0.0
2014-Jul-13 17:31N 39°27' W 000°19'0 0.0
2014-Jul-13 16:33N 39°27' W 000°19'4 4.4
2014-Jul-13 15:33N 39°28' W 000°13'1816.9
2014-Jul-13 14:30N 39°40' E 000°04'1617.2
2014-Jul-13 13:33N 39°50' E 000°20'1717.2
2014-Jul-13 12:33N 40°02' E 000°36'1917.4
2014-Jul-13 11:29N 40°15' E 000°54'1717.9
2014-Jul-13 10:33N 40°26' E 001°11'2118.1
2014-Jul-13 09:23N 40°40' E 001°31'1518.4
2014-Jul-13 08:33N 40°52' E 001°44'2017.9
2014-Jul-13 07:24N 41°08' E 002°01'1315.8
2014-Jul-13 06:34N 41°19' E 002°10'1 0.1
2014-Jul-12 11:20N 41°18' E 002°11'2 2.7
2014-Jul-12 10:28N 41°17' E 002°13'1111.5
2014-Jul-12 09:33N 41°23' E 002°25'2018.3
2014-Jul-12 08:29N 41°33' E 002°48'1616.8
2014-Jul-12 07:33N 41°41' E 003°05'2018.0
2014-Jul-12 06:28N 41°53' E 003°26'1918.5
2014-Jul-12 05:28N 42°07' E 003°42'1818.6
2014-Jul-12 04:30N 42°21' E 003°58'2419.9
2014-Jul-12 03:18N 42°38' E 004°20'1619.5
2014-Jul-12 02:30N 42°50' E 004°34'2019.7
2014-Jul-12 01:30N 43°05' E 004°52'1717.6
2014-Jul-12 00:33N 43°21' E 004°58'7 6.5
2014-Jul-11 23:32N 43°25' E 004°51'0 0.0
2014-Jul-11 22:32N 43°25' E 004°51'0 0.0
2014-Jul-11 21:32N 43°25' E 004°51'0 0.0
2014-Jul-11 20:32N 43°25' E 004°51'0 0.0
2014-Jul-11 19:32N 43°25' E 004°51'0 0.0
2014-Jul-11 18:32N 43°25' E 004°51'0 0.0
2014-Jul-11 17:32N 43°25' E 004°51'0 0.0
2014-Jul-11 16:32N 43°25' E 004°51'0 0.0
2014-Jul-11 15:32N 43°25' E 004°51'0 0.0
2014-Jul-11 14:32N 43°25' E 004°51'0 0.0
2014-Jul-11 13:32N 43°25' E 004°51'0 0.0
2014-Jul-11 12:32N 43°25' E 004°51'0 0.0
2014-Jul-11 11:32N 43°25' E 004°51'0 0.0
2014-Jul-11 10:32N 43°25' E 004°51'0 0.0
2014-Jul-11 09:32N 43°25' E 004°51'0 0.0
2014-Jul-11 08:32N 43°25' E 004°51'0 0.0
2014-Jul-11 07:32N 43°25' E 004°51'0 0.0
2014-Jul-11 06:32N 43°25' E 004°51'0 0.0
2014-Jul-11 05:32N 43°25' E 004°51'0 0.0
2014-Jul-11 04:32N 43°25' E 004°51'0 0.0
2014-Jul-11 03:32N 43°25' E 004°51'0 0.0
2014-Jul-11 02:32N 43°25' E 004°51'0 0.0
2014-Jul-11 01:32N 43°25' E 004°51'0 0.0
2014-Jul-11 00:32N 43°25' E 004°51'0 0.0
2014-Jul-10 23:32N 43°25' E 004°51'0 0.0
2014-Jul-10 22:32N 43°25' E 004°51'0 0.0
2014-Jul-10 21:32N 43°25' E 004°51'0 0.0
2014-Jul-10 20:32N 43°25' E 004°51'0 0.0
2014-Jul-10 19:29N 43°25' E 004°51'0 0.0
2014-Jul-10 18:32N 43°25' E 004°51'  

Dump ship's entire track history